Time;durP1;ratioP1;P1;durP2;ratioP2;P2;SDS_P1;SDS_P2;PMS_P1;PMS_P2;Temp;Humidity;BMP_temperature;BMP_pressure;BME280_temperature;BME280_humidity;BME280_pressure;Samples;Min_cycle;Max_cycle;Signal;HPM_P1;HPM_P2
2021/03/10 00:00:09;;;;;;;38.50;27.50;;;5.40;97.60;;;;;;5004037;28;20382;-74
2021/03/10 00:02:38;;;;;;;23.90;20.70;;;5.40;97.20;;;;;;5004452;28;20041;-74
2021/03/10 00:05:07;;;;;;;22.73;17.75;;;5.40;98.30;;;;;;5009953;28;20390;-74
2021/03/10 00:07:35;;;;;;;25.37;18.63;;;5.30;98.80;;;;;;5006071;28;20509;-74
2021/03/10 00:10:05;;;;;;;28.05;18.75;;;5.20;98.50;;;;;;5006281;28;20194;-74
2021/03/10 00:12:32;;;;;;;28.45;19.27;;;5.20;99.50;;;;;;5004374;28;20482;-75
2021/03/10 00:15:02;;;;;;;23.40;17.38;;;5.20;99.20;;;;;;5007515;28;20018;-74
2021/03/10 00:17:30;;;;;;;24.10;19.20;;;5.20;99.60;;;;;;5005521;28;20045;-74
2021/03/10 00:19:58;;;;;;;24.50;19.40;;;5.10;99.00;;;;;;5006425;28;20105;-74
2021/03/10 00:22:26;;;;;;;23.08;19.58;;;5.00;99.30;;;;;;5005487;28;20026;-74
2021/03/10 00:24:54;;;;;;;21.98;18.17;;;4.80;99.90;;;;;;5004387;28;20126;-74
2021/03/10 00:27:26;;;;;;;26.40;18.27;;;4.70;99.90;;;;;;5004364;28;20038;-74
2021/03/10 00:30:02;;;;;;;27.23;19.55;;;4.60;99.90;;;;;;5006202;28;20061;-74
2021/03/10 00:32:30;;;;;;;28.70;22.75;;;4.60;99.90;;;;;;5003999;28;20033;-74
2021/03/10 00:35:01;;;;;;;30.75;22.33;;;4.60;99.90;;;;;;5004570;28;20116;-75
2021/03/10 00:37:29;;;;;;;29.75;20.95;;;4.50;99.90;;;;;;5004973;28;20026;-74
2021/03/10 00:39:57;;;;;;;27.48;20.05;;;4.40;99.90;;;;;;5006825;28;20071;-75
2021/03/10 00:42:26;;;;;;;29.40;20.58;;;4.30;99.90;;;;;;5003018;28;20026;-74
2021/03/10 00:44:54;;;;;;;24.98;19.48;;;4.10;99.90;;;;;;5008092;28;20026;-74
2021/03/10 00:47:21;;;;;;;25.50;20.58;;;3.90;99.90;;;;;;5002724;28;20077;-74
2021/03/10 00:49:49;;;;;;;24.23;19.10;;;3.80;99.90;;;;;;5003792;28;20053;-75
2021/03/10 00:52:17;;;;;;;25.25;18.23;;;3.70;99.90;;;;;;5005756;28;20037;-75
2021/03/10 00:54:45;;;;;;;25.27;19.27;;;3.70;99.90;;;;;;5002694;28;20027;-74
2021/03/10 00:57:14;;;;;;;26.95;18.70;;;3.90;99.90;;;;;;5004810;28;20022;-74
2021/03/10 00:59:41;;;;;;;25.40;18.95;;;4.10;99.90;;;;;;5005214;28;20020;-74
2021/03/10 01:02:09;;;;;;;23.67;20.13;;;4.10;99.90;;;;;;5003109;28;20364;-75
2021/03/10 01:04:37;;;;;;;22.52;17.90;;;4.00;99.90;;;;;;5003072;28;20704;-75
2021/03/10 01:07:05;;;;;;;27.60;19.75;;;3.90;99.90;;;;;;5004151;28;20496;-74
2021/03/10 01:09:33;;;;;;;23.70;18.48;;;3.80;99.90;;;;;;5003689;28;20030;-74
2021/03/10 01:12:01;;;;;;;29.02;17.92;;;3.70;99.90;;;;;;5004099;28;20038;-74
2021/03/10 01:14:28;;;;;;;24.35;18.02;;;3.70;99.90;;;;;;5002617;28;20045;-74
2021/03/10 01:16:56;;;;;;;27.38;20.70;;;3.70;99.90;;;;;;5003718;28;20014;-74
2021/03/10 01:19:24;;;;;;;20.58;16.15;;;3.70;99.90;;;;;;5004798;28;20395;-74
2021/03/10 01:21:53;;;;;;;19.10;14.68;;;3.50;99.90;;;;;;5003412;28;20049;-74
2021/03/10 01:24:20;;;;;;;21.85;15.95;;;3.30;99.90;;;;;;5004151;28;20076;-74
2021/03/10 01:26:49;;;;;;;21.15;16.65;;;3.00;99.90;;;;;;5002271;28;20105;-75
2021/03/10 01:29:16;;;;;;;21.90;18.27;;;2.90;99.90;;;;;;5008190;28;20030;-75
2021/03/10 01:31:44;;;;;;;26.23;18.77;;;3.00;99.90;;;;;;5004028;28;20121;-75
2021/03/10 01:34:11;;;;;;;23.88;19.05;;;3.10;99.90;;;;;;5002543;28;20026;-74
2021/03/10 01:36:39;;;;;;;24.15;18.45;;;3.30;99.90;;;;;;5003789;28;20017;-75
2021/03/10 01:39:07;;;;;;;29.88;19.02;;;3.50;99.90;;;;;;5003562;28;20022;-75
2021/03/10 01:41:36;;;;;;;31.73;19.83;;;3.60;99.90;;;;;;5003784;28;20372;-75
2021/03/10 01:44:04;;;;;;;30.17;20.85;;;3.70;99.90;;;;;;5001547;28;20030;-74
2021/03/10 01:46:39;;;;;;;31.45;21.48;;;3.80;99.90;;;;;;5002582;28;20025;-74
2021/03/10 01:49:09;;;;;;;32.83;22.95;;;3.90;99.90;;;;;;5003666;28;20454;-75
2021/03/10 01:51:37;;;;;;;34.55;22.45;;;4.00;99.90;;;;;;5003163;28;20045;-74
2021/03/10 01:54:05;;;;;;;24.65;19.25;;;4.00;99.90;;;;;;5001646;28;20026;-74
2021/03/10 01:56:34;;;;;;;23.08;17.88;;;4.00;99.90;;;;;;5005019;28;20026;-74
2021/03/10 01:59:02;;;;;;;23.27;17.70;;;4.00;99.90;;;;;;5005762;28;20100;-74
2021/03/10 02:01:30;;;;;;;25.77;19.25;;;3.90;99.90;;;;;;5001636;28;20030;-74
2021/03/10 02:04:01;;;;;;;22.27;17.52;;;4.00;99.90;;;;;;5002020;28;20018;-74
2021/03/10 02:06:44;;;;;;;25.35;19.50;;;4.00;99.90;;;;;;5003978;28;20117;-74
2021/03/10 02:09:25;;;;;;;27.55;19.95;;;4.00;99.90;;;;;;5004370;28;20023;-74
2021/03/10 02:12:06;;;;;;;29.85;18.92;;;4.20;99.90;;;;;;5003218;28;20437;-74
2021/03/10 02:14:48;;;;;;;24.83;19.20;;;4.20;99.90;;;;;;5005965;28;20053;-75
2021/03/10 02:17:21;;;;;;;22.88;18.50;;;4.30;99.90;;;;;;5003015;28;20032;-74
2021/03/10 02:20:23;;;;;;;28.10;20.23;;;4.20;99.70;;;;;;5003315;28;20397;-75
2021/03/10 02:23:18;;;;;;;21.63;16.17;;;4.10;99.70;;;;;;5004108;28;20033;-74
2021/03/10 02:26:22;;;;;;;20.70;15.65;;;4.00;99.90;;;;;;5003496;28;20442;-75
2021/03/10 02:28:52;;;;;;;20.50;16.00;;;3.80;99.90;;;;;;5006662;28;20037;-74
2021/03/10 02:31:19;;;;;;;;;;;3.60;99.90;;;;;;5003670;28;20034;-74
2021/03/10 02:33:47;;;;;;;22.95;16.90;;;3.50;99.90;;;;;;5003023;28;19916;-74
2021/03/10 02:36:17;;;;;;;25.13;17.88;;;3.50;99.90;;;;;;5004730;28;20042;-74
2021/03/10 02:38:48;;;;;;;24.25;18.80;;;3.40;99.90;;;;;;5000953;28;20030;-74
2021/03/10 02:41:18;;;;;;;25.23;17.73;;;3.30;99.90;;;;;;5001545;28;20021;-74
2021/03/10 02:43:48;;;;;;;34.22;18.02;;;3.20;99.90;;;;;;5002826;28;20399;-75
2021/03/10 02:46:17;;;;;;;26.02;17.27;;;3.00;99.90;;;;;;5001933;28;20106;-74
2021/03/10 02:48:45;;;;;;;24.80;17.17;;;2.90;99.90;;;;;;5000719;28;20446;-74
2021/03/10 02:51:17;;;;;;;27.85;18.35;;;2.70;99.90;;;;;;5001575;28;20301;-74
2021/03/10 02:53:47;;;;;;;20.60;16.77;;;2.60;99.90;;;;;;5001002;28;20026;-74
2021/03/10 02:56:16;;;;;;;23.73;17.10;;;2.60;99.90;;;;;;5001611;28;20018;-75
2021/03/10 02:58:44;;;;;;;21.45;16.92;;;2.50;99.90;;;;;;5003707;28;20037;-75
2021/03/10 03:01:13;;;;;;;25.00;17.60;;;2.30;99.90;;;;;;5005737;28;20061;-74
2021/03/10 03:03:42;;;;;;;18.15;15.98;;;2.30;99.90;;;;;;5000302;28;20372;-75
2021/03/10 03:06:10;;;;;;;22.38;16.70;;;2.10;99.90;;;;;;5006077;28;20072;-75
2021/03/10 03:08:39;;;;;;;23.98;17.70;;;2.00;99.90;;;;;;5004909;28;20045;-75
2021/03/10 03:11:08;;;;;;;24.60;17.75;;;1.70;99.90;;;;;;5003246;28;20034;-74
2021/03/10 03:13:37;;;;;;;27.63;18.42;;;1.80;99.90;;;;;;5000607;28;20052;-75
2021/03/10 03:16:05;;;;;;;25.67;19.48;;;1.80;99.90;;;;;;5003119;28;20049;-75
2021/03/10 03:18:33;;;;;;;23.73;17.73;;;1.90;99.90;;;;;;5003824;28;20073;-75
2021/03/10 03:21:01;;;;;;;25.35;18.63;;;1.90;99.90;;;;;;5002299;28;20175;-75
2021/03/10 03:23:29;;;;;;;24.75;17.73;;;1.90;99.90;;;;;;5002591;28;20036;-74
2021/03/10 03:25:58;;;;;;;27.97;19.30;;;1.70;99.90;;;;;;5001641;28;20037;-74
2021/03/10 03:28:30;;;;;;;27.77;20.38;;;1.80;99.90;;;;;;5003753;28;20125;-75
2021/03/10 03:30:58;;;;;;;26.33;18.60;;;1.80;99.90;;;;;;5005341;28;20030;-74
2021/03/10 03:33:31;;;;;;;26.33;18.98;;;1.80;99.90;;;;;;5002323;28;20478;-74
2021/03/10 03:36:00;;;;;;;30.73;20.92;;;1.60;99.90;;;;;;5001797;28;20030;-74
2021/03/10 03:38:29;;;;;;;28.05;18.67;;;1.50;99.90;;;;;;5002360;28;20018;-74
2021/03/10 03:40:58;;;;;;;24.13;16.77;;;1.50;99.90;;;;;;5001695;28;20030;-74
2021/03/10 03:43:32;;;;;;;20.02;15.48;;;1.50;99.90;;;;;;5002322;28;20390;-75
2021/03/10 03:45:59;;;;;;;26.92;17.55;;;1.40;99.90;;;;;;5003942;28;20541;-75
2021/03/10 03:48:30;;;;;;;27.90;18.88;;;1.30;99.90;;;;;;5002252;28;20057;-74
2021/03/10 03:50:58;;;;;;;29.27;19.35;;;1.20;99.90;;;;;;5001469;28;20038;-74
2021/03/10 03:53:26;;;;;;;28.80;19.08;;;1.20;99.90;;;;;;5000064;28;20022;-74
2021/03/10 03:55:54;;;;;;;23.00;16.25;;;1.30;99.90;;;;;;5016042;28;20018;-74
2021/03/10 03:58:22;;;;;;;23.13;15.02;;;1.20;99.90;;;;;;5003058;28;20375;-75
2021/03/10 04:00:50;;;;;;;21.20;15.20;;;1.20;99.90;;;;;;5001568;28;20014;-74
2021/03/10 04:03:18;;;;;;;24.13;16.63;;;1.10;99.90;;;;;;5003555;28;20030;-75
2021/03/10 04:05:46;;;;;;;27.52;17.48;;;0.90;99.90;;;;;;5003106;28;20030;-75
2021/03/10 04:08:17;;;;;;;25.27;18.73;;;0.90;99.90;;;;;;5004505;28;20088;-75
2021/03/10 04:10:45;;;;;;;28.30;18.15;;;0.80;99.90;;;;;;5003425;28;20536;-75
2021/03/10 04:13:13;;;;;;;25.30;17.80;;;0.90;99.90;;;;;;5004326;28;20057;-75
2021/03/10 04:15:41;;;;;;;23.15;17.23;;;0.90;99.90;;;;;;5005567;28;20049;-74
2021/03/10 04:18:09;;;;;;;24.73;17.13;;;0.90;99.90;;;;;;5005607;28;20512;-74
2021/03/10 04:20:36;;;;;;;25.05;18.25;;;0.90;99.90;;;;;;5004996;28;20019;-74
2021/03/10 04:23:04;;;;;;;24.98;17.05;;;1.00;99.90;;;;;;5003409;28;20518;-74
2021/03/10 04:25:32;;;;;;;25.70;16.70;;;1.10;99.90;;;;;;5004846;28;20176;-74
2021/03/10 04:27:59;;;;;;;19.48;14.35;;;1.10;99.90;;;;;;5009095;28;20053;-74
2021/03/10 04:30:27;;;;;;;20.50;13.98;;;1.00;99.90;;;;;;5008390;28;20028;-75
2021/03/10 04:32:55;;;;;;;22.35;14.80;;;0.70;99.90;;;;;;5004544;28;20162;-74
2021/03/10 04:35:23;;;;;;;23.55;15.63;;;0.40;99.90;;;;;;5005561;28;20071;-75
2021/03/10 04:37:50;;;;;;;29.05;17.63;;;0.40;99.90;;;;;;5003733;28;20026;-75
2021/03/10 04:40:19;;;;;;;29.80;18.13;;;0.50;99.90;;;;;;5003185;28;20022;-74
2021/03/10 04:42:48;;;;;;;33.10;21.17;;;0.50;99.90;;;;;;5004714;28;20022;-75
2021/03/10 04:45:16;;;;;;;24.65;18.27;;;0.40;99.90;;;;;;5009189;28;20022;-75
2021/03/10 04:47:45;;;;;;;34.28;20.67;;;0.30;99.90;;;;;;5007310;28;20022;-76
2021/03/10 04:50:15;;;;;;;30.85;19.38;;;0.40;99.90;;;;;;5004599;28;20116;-75
2021/03/10 04:52:43;;;;;;;;;;;0.30;99.90;;;;;;5009790;28;20022;-74
2021/03/10 04:55:11;;;;;;;47.58;27.73;;;0.30;99.90;;;;;;5011136;28;19913;-75
2021/03/10 04:57:40;;;;;;;59.45;30.42;;;0.30;99.90;;;;;;5011931;28;20037;-74
2021/03/10 05:00:11;;;;;;;39.97;23.50;;;0.20;99.90;;;;;;5008468;28;20506;-74
2021/03/10 05:02:39;;;;;;;32.38;22.00;;;0.20;99.90;;;;;;5009253;28;20390;-74
2021/03/10 05:05:09;;;;;;;33.88;23.05;;;0.10;99.90;;;;;;5003830;28;20034;-74
2021/03/10 05:07:37;;;;;;;30.63;19.33;;;0.30;99.90;;;;;;5005766;28;20033;-75
2021/03/10 05:10:08;;;;;;;34.10;21.35;;;0.30;99.90;;;;;;5011278;28;20203;-74
2021/03/10 05:12:37;;;;;;;37.72;21.50;;;0.30;99.90;;;;;;5010797;28;20030;-74
2021/03/10 05:15:06;;;;;;;29.92;19.20;;;0.20;99.90;;;;;;5009831;28;20022;-74
2021/03/10 05:17:34;;;;;;;28.45;18.50;;;0.00;99.90;;;;;;5005883;28;20364;-74
2021/03/10 05:20:04;;;;;;;32.60;21.17;;;-0.10;99.90;;;;;;5020331;28;20038;-74
2021/03/10 05:22:31;;;;;;;34.95;21.48;;;-0.10;99.90;;;;;;5006578;28;20037;-74
2021/03/10 05:25:00;;;;;;;36.88;22.48;;;-0.10;99.90;;;;;;5018754;28;20678;-74
2021/03/10 05:27:31;;;;;;;35.55;22.25;;;0.00;99.90;;;;;;5023682;28;20489;-74
2021/03/10 05:30:03;;;;;;;35.38;18.83;;;0.10;99.90;;;;;;5019495;28;20038;-75
2021/03/10 05:32:31;;;;;;;37.65;24.95;;;0.10;99.90;;;;;;5003050;28;20038;-75
2021/03/10 05:34:59;;;;;;;43.85;26.02;;;0.00;99.90;;;;;;5002933;28;20549;-77
2021/03/10 05:37:26;;;;;;;30.02;21.20;;;-0.10;99.90;;;;;;5002133;28;20037;-77
2021/03/10 05:39:55;;;;;;;35.17;23.33;;;0.00;99.90;;;;;;5005577;28;20025;-77
2021/03/10 05:42:23;;;;;;;39.90;25.03;;;0.10;99.90;;;;;;5007708;28;20121;-76
2021/03/10 05:44:54;;;;;;;36.30;21.52;;;0.10;99.90;;;;;;5011137;28;20041;-77
2021/03/10 05:47:21;;;;;;;39.22;28.70;;;0.10;99.90;;;;;;5006703;28;20065;-77
2021/03/10 05:49:49;;;;;;;29.48;22.20;;;0.10;99.90;;;;;;5009251;28;20056;-78
2021/03/10 05:52:17;;;;;;;38.83;25.55;;;0.00;99.90;;;;;;5004755;28;20034;-77
2021/03/10 05:54:45;;;;;;;33.13;23.38;;;-0.10;99.90;;;;;;5003626;28;20033;-77
2021/03/10 05:57:14;;;;;;;30.58;20.98;;;-0.10;99.90;;;;;;5007968;28;20032;-78
2021/03/10 05:59:42;;;;;;;30.87;20.23;;;-0.20;99.90;;;;;;5012491;28;20032;-78
2021/03/10 06:02:10;;;;;;;37.25;23.38;;;-0.30;99.90;;;;;;5010411;28;20034;-77
2021/03/10 06:04:42;;;;;;;34.03;22.35;;;-0.30;99.90;;;;;;5011463;28;20037;-77
2021/03/10 06:07:22;;;;;;;31.42;21.27;;;-0.40;99.90;;;;;;5011173;28;20065;-77
2021/03/10 06:09:56;;;;;;;;;;;-0.40;99.90;;;;;;5007443;28;20038;-78
2021/03/10 06:12:36;;;;;;;29.63;19.80;;;-0.30;99.90;;;;;;5002848;28;19980;-78
2021/03/10 06:15:05;;;;;;;31.33;18.35;;;-0.40;99.90;;;;;;4999917;28;20018;-77
2021/03/10 06:17:49;;;;;;;26.45;18.50;;;-0.30;99.90;;;;;;4993796;28;20081;-77
2021/03/10 06:20:32;;;;;;;27.02;19.38;;;-0.30;99.90;;;;;;5007718;28;20041;-76
2021/03/10 06:23:02;;;;;;;31.17;20.13;;;-0.30;99.90;;;;;;4998374;28;20034;-76
2021/03/10 06:25:38;;;;;;;29.15;21.42;;;-0.30;99.90;;;;;;5007232;28;20037;-74
2021/03/10 06:28:06;;;;;;;30.05;22.58;;;-0.20;99.90;;;;;;5028095;28;20040;-80
2021/03/10 06:30:43;;;;;;;28.95;18.38;;;-0.10;99.90;;;;;;5011502;28;20069;-78
2021/03/10 06:33:22;;;;;;;31.83;22.27;;;-0.10;99.90;;;;;;4995962;28;20056;-78
2021/03/10 06:35:51;;;;;;;32.53;20.77;;;-0.20;99.90;;;;;;5008550;28;20540;-78
2021/03/10 06:38:20;;;;;;;32.10;21.25;;;-0.20;99.90;;;;;;5009881;28;20097;-79
2021/03/10 06:40:53;;;;;;;34.05;21.95;;;-0.10;99.90;;;;;;5007201;28;20033;-78
2021/03/10 06:43:33;;;;;;;42.08;25.33;;;-0.10;99.90;;;;;;5009696;28;20036;-78
2021/03/10 06:46:16;;;;;;;35.40;23.33;;;-0.10;99.90;;;;;;5010758;28;20034;-79
2021/03/10 06:48:59;;;;;;;36.15;23.17;;;-0.20;99.90;;;;;;5013091;28;20030;-79
2021/03/10 06:51:29;;;;;;;40.50;25.33;;;-0.20;99.90;;;;;;5011583;28;20061;-79
2021/03/10 06:53:58;;;;;;;39.60;24.35;;;-0.20;99.90;;;;;;5012018;28;20038;-74
2021/03/10 06:56:31;;;;;;;43.17;25.95;;;-0.20;99.90;;;;;;5012148;28;20029;-75
2021/03/10 06:59:06;;;;;;;34.85;23.55;;;-0.20;99.90;;;;;;5012257;28;20072;-77
2021/03/10 07:01:43;;;;;;;35.00;24.30;;;0.00;99.90;;;;;;5011912;28;20576;-77
2021/03/10 07:04:13;;;;;;;36.33;21.10;;;0.10;99.90;;;;;;5011878;28;20101;-76
2021/03/10 07:06:42;;;;;;;27.88;19.20;;;0.30;99.90;;;;;;5011425;28;20087;-72
2021/03/10 07:09:17;;;;;;;35.83;25.60;;;0.30;99.90;;;;;;5011846;28;20026;-70
2021/03/10 07:11:45;;;;;;;32.97;23.23;;;0.30;99.90;;;;;;5008844;28;20514;-71
2021/03/10 07:14:15;;;;;;;34.22;23.73;;;0.30;99.90;;;;;;5011608;28;20513;-71
2021/03/10 07:16:44;;;;;;;30.10;20.50;;;0.50;99.90;;;;;;5010615;28;20032;-71
2021/03/10 07:19:13;;;;;;;31.50;21.48;;;0.70;99.90;;;;;;5011537;28;20034;-71
2021/03/10 07:21:53;;;;;;;28.90;20.17;;;0.90;99.90;;;;;;5011220;28;20547;-71
2021/03/10 07:24:43;;;;;;;29.23;17.48;;;1.10;99.90;;;;;;5010555;28;20540;-71
2021/03/10 07:27:12;;;;;;;26.05;17.10;;;1.10;99.90;;;;;;4997784;28;20156;-70
2021/03/10 07:29:43;;;;;;;31.15;22.13;;;1.10;99.90;;;;;;5012112;28;20061;-70
2021/03/10 07:32:10;;;;;;;29.52;21.02;;;1.20;99.90;;;;;;5009863;28;20486;-71
2021/03/10 07:34:39;;;;;;;27.20;19.83;;;1.40;99.90;;;;;;5011644;28;20437;-70
2021/03/10 07:37:17;;;;;;;;;;;1.50;99.90;;;;;;5012713;28;20441;-71
2021/03/10 07:39:46;;;;;;;34.97;20.20;;;1.60;99.90;;;;;;5012129;28;19910;-71
2021/03/10 07:42:17;;;;;;;25.50;19.10;;;1.80;99.90;;;;;;5015821;28;20032;-71
2021/03/10 07:44:57;;;;;;;28.00;20.35;;;2.00;99.90;;;;;;5015905;28;20077;-70
2021/03/10 07:47:26;;;;;;;31.35;21.55;;;2.20;99.90;;;;;;5016044;28;20425;-71
2021/03/10 07:50:03;;;;;;;27.48;20.10;;;2.40;99.90;;;;;;5015296;28;20437;-70
2021/03/10 07:52:31;;;;;;;33.17;21.85;;;2.60;99.90;;;;;;5015839;28;20030;-70
2021/03/10 07:55:02;;;;;;;33.47;21.80;;;2.70;99.90;;;;;;5015628;28;20084;-70
2021/03/10 07:57:31;;;;;;;32.17;21.67;;;2.70;99.90;;;;;;5015624;28;20497;-71
2021/03/10 08:00:07;;;;;;;34.65;21.90;;;2.80;99.90;;;;;;5015229;28;20033;-70
2021/03/10 08:02:48;;;;;;;32.92;21.17;;;2.90;99.90;;;;;;5015753;28;20030;-70
2021/03/10 08:05:25;;;;;;;29.92;20.73;;;3.10;99.90;;;;;;5015367;28;20061;-70
2021/03/10 08:08:14;;;;;;;30.38;21.67;;;3.20;99.90;;;;;;5014872;28;20037;-70
2021/03/10 08:10:43;;;;;;;27.05;19.77;;;3.50;99.90;;;;;;5015437;28;20028;-70
2021/03/10 08:13:30;;;;;;;32.05;21.73;;;3.70;99.50;;;;;;5015109;28;20018;-70
2021/03/10 08:16:10;;;;;;;28.95;19.58;;;3.80;99.90;;;;;;5015056;28;20065;-70
2021/03/10 08:18:47;;;;;;;31.50;19.10;;;4.10;99.40;;;;;;5015263;28;20405;-70
2021/03/10 08:21:19;;;;;;;27.42;19.27;;;4.20;98.90;;;;;;5015081;28;20030;-72
2021/03/10 08:23:47;;;;;;;23.20;18.00;;;4.30;98.00;;;;;;5015142;28;20113;-70
2021/03/10 08:26:18;;;;;;;24.73;17.52;;;4.50;97.80;;;;;;5015088;28;20049;-70
2021/03/10 08:28:46;;;;;;;27.13;18.92;;;4.70;95.90;;;;;;5015262;28;20022;-70
2021/03/10 08:31:14;;;;;;;23.63;17.60;;;4.90;96.20;;;;;;5014626;28;20022;-70
2021/03/10 08:33:50;;;;;;;20.40;16.80;;;5.40;96.90;;;;;;5014118;28;20030;-70
2021/03/10 08:36:18;;;;;;;21.85;17.40;;;5.60;93.60;;;;;;5015013;28;20014;-70
2021/03/10 08:38:45;;;;;;;20.83;18.27;;;5.80;94.70;;;;;;5015158;28;20029;-70
2021/03/10 08:41:11;;;;;;;23.75;17.05;;;6.20;95.10;;;;;;5014920;28;20104;-70
2021/03/10 08:43:37;;;;;;;24.75;16.90;;;6.60;92.40;;;;;;5014991;28;20033;-70
2021/03/10 08:46:04;;;;;;;22.77;17.70;;;6.90;90.20;;;;;;5014787;28;20108;-70
2021/03/10 08:48:35;;;;;;;19.63;15.90;;;7.10;87.60;;;;;;5029672;28;20380;-70
2021/03/10 08:51:03;;;;;;;21.58;16.75;;;7.20;83.00;;;;;;5014581;28;20084;-70
2021/03/10 08:53:30;;;;;;;20.38;17.50;;;7.50;82.80;;;;;;5013818;28;20399;-70
2021/03/10 08:56:05;;;;;;;21.27;16.55;;;7.90;83.60;;;;;;5014680;28;20033;-71
2021/03/10 08:58:31;;;;;;;19.60;16.17;;;8.30;82.90;;;;;;5014653;28;20026;-70
2021/03/10 09:00:57;;;;;;;18.40;15.77;;;8.60;81.20;;;;;;5014576;28;20022;-71
2021/03/10 09:03:23;;;;;;;18.23;15.90;;;9.20;78.60;;;;;;5014342;28;20088;-70
2021/03/10 09:05:51;;;;;;;17.73;15.70;;;9.40;75.50;;;;;;5013316;28;20215;-70
2021/03/10 09:08:26;;;;;;;20.50;17.35;;;10.10;71.80;;;;;;5014094;28;20037;-70
2021/03/10 09:10:54;;;;;;;18.67;16.67;;;11.20;67.20;;;;;;5013953;28;20026;-71
2021/03/10 09:13:21;;;;;;;21.08;16.42;;;12.70;62.00;;;;;;5014356;28;20121;-71
2021/03/10 09:15:48;;;;;;;19.63;16.05;;;15.40;58.50;;;;;;5014138;28;20048;-71
2021/03/10 09:18:15;;;;;;;18.95;17.15;;;17.70;50.20;;;;;;5014190;28;20036;-71
2021/03/10 09:20:43;;;;;;;19.55;17.48;;;19.30;47.30;;;;;;5014090;28;20034;-70
2021/03/10 09:23:10;;;;;;;18.98;16.48;;;20.30;40.60;;;;;;5013875;28;20030;-71
2021/03/10 09:25:38;;;;;;;21.63;17.65;;;21.80;40.70;;;;;;5014452;28;20026;-71
2021/03/10 09:28:05;;;;;;;20.88;17.52;;;22.30;39.80;;;;;;5014170;28;20057;-71
2021/03/10 09:30:33;;;;;;;18.35;16.50;;;22.90;37.00;;;;;;4999578;28;20023;-71
2021/03/10 09:32:59;;;;;;;19.33;17.42;;;23.30;36.30;;;;;;4993202;28;20030;-71
2021/03/10 09:35:35;;;;;;;17.83;15.95;;;23.30;37.70;;;;;;4994324;28;20106;-71
2021/03/10 09:38:03;;;;;;;17.00;15.20;;;23.80;34.70;;;;;;4994450;28;20026;-71
2021/03/10 09:40:45;;;;;;;19.58;16.80;;;24.20;34.60;;;;;;4996012;28;20033;-71
2021/03/10 09:43:19;;;;;;;18.23;16.33;;;24.30;33.60;;;;;;5004676;28;20038;-71
2021/03/10 09:45:46;;;;;;;15.65;14.15;;;24.90;30.30;;;;;;5009085;28;20094;-71
2021/03/10 09:48:15;;;;;;;15.00;13.60;;;25.40;30.20;;;;;;5027001;28;20399;-71
2021/03/10 09:50:43;;;;;;;15.27;13.50;;;25.40;31.30;;;;;;5013101;28;20395;-71
2021/03/10 09:53:24;;;;;;;13.82;12.43;;;24.70;32.30;;;;;;5013637;28;20041;-71
2021/03/10 09:55:50;;;;;;;14.85;13.35;;;25.50;32.10;;;;;;5013012;28;20081;-71
2021/03/10 09:58:16;;;;;;;14.95;13.38;;;25.40;31.80;;;;;;5013197;28;20421;-71
2021/03/10 10:00:44;;;;;;;13.77;12.48;;;25.80;31.30;;;;;;5012547;28;20463;-71
2021/03/10 10:03:11;;;;;;;14.75;13.35;;;27.90;29.30;;;;;;5013170;28;20033;-71
2021/03/10 10:05:39;;;;;;;14.15;12.75;;;28.30;29.20;;;;;;5013443;28;20038;-71
2021/03/10 10:08:08;;;;;;;13.20;11.88;;;28.80;28.00;;;;;;5013468;28;20556;-72
2021/03/10 10:10:36;;;;;;;17.60;12.93;;;29.50;28.30;;;;;;5013167;28;20033;-71
2021/03/10 10:13:03;;;;;;;12.02;10.93;;;30.40;27.10;;;;;;5013248;28;20045;-71
2021/03/10 10:15:32;;;;;;;11.70;10.50;;;30.80;28.20;;;;;;5012570;28;20053;-71
2021/03/10 10:18:01;;;;;;;12.30;11.18;;;29.60;27.40;;;;;;5013385;28;20026;-71
2021/03/10 10:20:34;;;;;;;12.18;11.07;;;30.50;26.50;;;;;;5012456;28;20022;-71
2021/03/10 10:23:01;;;;;;;12.02;10.98;;;31.60;26.40;;;;;;5013173;28;20057;-71
2021/03/10 10:25:27;;;;;;;10.30;9.40;;;32.40;25.50;;;;;;5012824;28;20033;-71
2021/03/10 10:27:53;;;;;;;10.63;9.65;;;30.70;26.10;;;;;;5013199;28;20032;-71
2021/03/10 10:30:20;;;;;;;11.50;10.40;;;28.60;27.50;;;;;;5012501;28;20033;-71
2021/03/10 10:32:47;;;;;;;11.07;10.05;;;30.90;26.20;;;;;;5012757;28;20038;-71
2021/03/10 10:35:15;;;;;;;11.52;10.40;;;32.60;25.50;;;;;;5012458;28;20474;-71
2021/03/10 10:37:42;;;;;;;11.52;10.43;;;33.40;24.10;;;;;;5012714;28;20022;-71
2021/03/10 10:40:11;;;;;;;9.93;8.93;;;33.80;24.40;;;;;;5012552;28;20061;-71
2021/03/10 10:42:38;;;;;;;10.27;9.32;;;35.00;23.20;;;;;;5012469;28;20034;-71
2021/03/10 10:45:06;;;;;;;10.23;9.23;;;34.40;22.50;;;;;;5011237;28;20398;-71
2021/03/10 10:47:33;;;;;;;10.52;9.35;;;34.10;24.90;;;;;;5012740;28;20026;-71
2021/03/10 10:50:01;;;;;;;10.23;9.23;;;34.40;24.10;;;;;;5012252;28;20045;-71
2021/03/10 10:52:27;;;;;;;10.85;9.98;;;35.00;23.70;;;;;;5012632;28;20124;-71
2021/03/10 10:54:53;;;;;;;10.85;9.75;;;35.30;24.20;;;;;;5012506;28;20010;-71
2021/03/10 10:57:19;;;;;;;11.18;10.07;;;34.90;23.40;;;;;;5012326;28;20034;-71
2021/03/10 10:59:45;;;;;;;9.20;8.40;;;35.40;22.90;;;;;;5012061;28;20056;-71
2021/03/10 11:02:11;;;;;;;8.93;8.13;;;36.10;22.80;;;;;;5012785;28;20101;-71
2021/03/10 11:04:38;;;;;;;10.38;9.38;;;35.30;22.80;;;;;;5012395;28;20040;-71
2021/03/10 11:07:05;;;;;;;9.52;8.63;;;35.40;24.20;;;;;;5012533;28;20037;-71
2021/03/10 11:09:33;;;;;;;8.85;7.80;;;35.40;23.70;;;;;;5012495;28;20030;-72
2021/03/10 11:12:00;;;;;;;8.27;7.57;;;36.00;22.60;;;;;;5011759;28;20120;-71
2021/03/10 11:14:26;;;;;;;7.75;7.07;;;36.20;23.30;;;;;;5012149;28;20087;-72
2021/03/10 11:16:56;;;;;;;7.32;6.72;;;36.20;22.40;;;;;;5011596;28;20037;-71
2021/03/10 11:19:25;;;;;;;7.22;6.50;;;35.90;23.20;;;;;;5012372;28;20057;-71
2021/03/10 11:21:51;;;;;;;6.00;5.60;;;36.50;22.20;;;;;;5012107;28;20040;-72
2021/03/10 11:24:18;;;;;;;7.15;5.55;;;37.10;22.60;;;;;;5012345;28;20030;-72
2021/03/10 11:26:44;;;;;;;5.85;5.45;;;37.90;22.10;;;;;;5011838;28;20497;-71
2021/03/10 11:29:11;;;;;;;6.20;5.70;;;37.40;21.10;;;;;;5012007;28;20022;-71
2021/03/10 11:31:38;;;;;;;7.03;6.10;;;36.90;21.50;;;;;;5012098;28;20018;-72
2021/03/10 11:34:04;;;;;;;7.68;5.88;;;35.80;20.90;;;;;;5011596;28;20113;-71
2021/03/10 11:36:30;;;;;;;6.90;6.30;;;35.50;22.50;;;;;;5012147;28;20088;-72
2021/03/10 11:38:56;;;;;;;6.13;5.63;;;35.60;22.20;;;;;;5012027;28;20034;-72
2021/03/10 11:41:23;;;;;;;6.63;6.07;;;35.30;22.00;;;;;;5012068;28;20751;-72
2021/03/10 11:43:49;;;;;;;5.72;5.22;;;34.90;21.60;;;;;;5012114;28;20109;-71
2021/03/10 11:46:15;;;;;;;6.18;5.60;;;34.70;22.00;;;;;;5011801;28;20156;-72
2021/03/10 11:48:41;;;;;;;6.45;5.85;;;36.40;23.10;;;;;;5012122;28;20056;-72
2021/03/10 11:51:08;;;;;;;7.55;5.35;;;37.20;22.70;;;;;;5011567;28;20155;-72
2021/03/10 11:53:34;;;;;;;5.03;4.63;;;38.10;21.20;;;;;;5012109;28;20025;-72
2021/03/10 11:56:00;;;;;;;5.32;4.93;;;38.30;20.70;;;;;;5011676;28;20061;-72
2021/03/10 11:58:27;;;;;;;5.18;4.68;;;39.90;22.40;;;;;;5011942;28;20033;-72
2021/03/10 12:00:54;;;;;;;5.25;4.75;;;40.50;21.90;;;;;;5011499;28;20034;-72
2021/03/10 12:03:20;;;;;;;5.38;4.88;;;40.10;20.50;;;;;;5011591;28;20038;-72
2021/03/10 12:05:46;;;;;;;5.40;5.00;;;38.40;21.50;;;;;;5011867;28;20441;-72
2021/03/10 12:08:12;;;;;;;5.80;5.30;;;38.10;21.60;;;;;;5012044;28;20030;-72
2021/03/10 12:10:40;;;;;;;4.88;4.43;;;36.50;22.70;;;;;;5011558;28;20073;-72
2021/03/10 12:13:07;;;;;;;4.97;4.57;;;36.10;21.80;;;;;;5011751;28;20049;-72
2021/03/10 12:15:34;;;;;;;4.93;4.53;;;36.60;21.80;;;;;;5011876;28;20560;-69
2021/03/10 12:18:00;;;;;;;4.90;4.53;;;37.40;23.20;;;;;;5011693;28;20044;-69
2021/03/10 12:20:26;;;;;;;8.10;3.95;;;38.00;22.20;;;;;;5011380;28;20038;-69
2021/03/10 12:22:52;;;;;;;4.35;4.05;;;38.30;22.10;;;;;;5011528;28;20025;-72
2021/03/10 12:25:18;;;;;;;4.93;4.40;;;37.60;21.80;;;;;;5011305;28;20109;-71
2021/03/10 12:27:45;;;;;;;5.63;5.22;;;36.30;22.00;;;;;;5012787;28;20022;-71
2021/03/10 12:30:11;;;;;;;5.03;4.60;;;36.10;22.30;;;;;;5003687;28;20034;-71
2021/03/10 12:32:38;;;;;;;4.70;4.30;;;36.80;22.00;;;;;;4995605;28;20064;-71
2021/03/10 12:35:05;;;;;;;5.05;4.75;;;36.00;22.30;;;;;;4995495;28;20026;-71
2021/03/10 12:37:31;;;;;;;4.80;4.40;;;35.60;21.40;;;;;;4995610;28;20038;-71
2021/03/10 12:39:58;;;;;;;5.55;4.57;;;36.20;21.20;;;;;;4995220;28;20041;-71
2021/03/10 12:42:24;;;;;;;4.72;4.32;;;36.70;21.30;;;;;;4995352;28;20486;-71
2021/03/10 12:44:50;;;;;;;4.78;4.38;;;37.00;21.40;;;;;;5009416;28;20497;-71
2021/03/10 12:47:17;;;;;;;6.03;5.53;;;37.00;22.10;;;;;;5014666;28;20114;-71
2021/03/10 12:49:44;;;;;;;5.78;4.65;;;36.10;21.90;;;;;;5014743;28;20053;-71